Time;durP1;ratioP1;P1;durP2;ratioP2;P2;SDS_P1;SDS_P2;PMS_P1;PMS_P2;Temp;Humidity;BMP_temperature;BMP_pressure;BME280_temperature;BME280_humidity;BME280_pressure;Samples;Min_cycle;Max_cycle;Signal;HPM_P1;HPM_P2
2022/06/21 00:00:48;;;;;;;9.32;2.80;;;13.80;99.90;;;;;;5009961;28;20125;-74
2022/06/21 00:03:24;;;;;;;15.82;3.60;;;13.80;99.90;;;;;;5027144;28;20569;-74
2022/06/21 00:05:52;;;;;;;9.57;2.80;;;14.10;99.90;;;;;;5027598;28;20555;-74
2022/06/21 00:08:22;;;;;;;11.02;3.05;;;13.90;99.90;;;;;;5026419;28;20394;-74
2022/06/21 00:10:48;;;;;;;8.43;3.05;;;13.80;99.90;;;;;;5027794;28;20121;-74
2022/06/21 00:13:18;;;;;;;7.78;2.80;;;14.70;99.90;;;;;;5027492;28;20505;-74
2022/06/21 00:15:45;;;;;;;8.00;2.85;;;14.40;99.90;;;;;;5008510;28;20129;-73
2022/06/21 00:18:13;;;;;;;9.93;3.63;;;13.80;99.90;;;;;;5028042;28;20133;-73
2022/06/21 00:20:40;;;;;;;10.07;2.88;;;14.20;99.90;;;;;;5006275;28;20046;-73
2022/06/21 00:23:06;;;;;;;7.45;3.08;;;13.70;99.90;;;;;;4989493;28;20050;-74
2022/06/21 00:25:32;;;;;;;13.15;3.00;;;13.70;99.90;;;;;;5020060;28;20088;-74
2022/06/21 00:27:58;;;;;;;12.60;3.20;;;13.70;99.90;;;;;;5027348;28;20042;-74
2022/06/21 00:30:24;;;;;;;11.70;3.25;;;13.60;99.90;;;;;;5009650;28;20047;-73
2022/06/21 00:32:53;;;;;;;8.65;3.53;;;13.60;99.90;;;;;;5027173;28;20052;-74
2022/06/21 00:35:21;;;;;;;9.90;3.42;;;13.60;99.90;;;;;;5026444;28;20041;-73
2022/06/21 00:37:48;;;;;;;12.50;3.35;;;13.50;99.90;;;;;;5026967;28;20061;-74
2022/06/21 00:40:27;;;;;;;10.27;3.08;;;13.50;99.90;;;;;;5027499;28;20048;-74
2022/06/21 00:43:11;;;;;;;8.25;2.97;;;13.50;99.90;;;;;;5009468;28;20095;-74
2022/06/21 00:45:43;;;;;;;9.25;3.00;;;13.50;99.90;;;;;;5009867;28;20121;-74
2022/06/21 00:48:15;;;;;;;12.68;3.85;;;13.50;99.90;;;;;;5026476;28;20159;-74
2022/06/21 00:50:45;;;;;;;9.55;3.03;;;13.50;99.90;;;;;;5027220;28;20100;-75
2022/06/21 00:53:21;;;;;;;9.65;3.17;;;13.50;99.90;;;;;;5026898;28;20056;-73
2022/06/21 00:55:55;;;;;;;10.18;3.50;;;13.40;99.90;;;;;;5027731;28;20116;-73
2022/06/21 00:58:25;;;;;;;9.95;3.40;;;13.70;99.90;;;;;;5030716;28;20462;-73
2022/06/21 01:01:15;;;;;;;10.68;3.58;;;13.40;99.90;;;;;;5017962;28;20037;-73
2022/06/21 01:03:46;;;;;;;13.10;4.00;;;13.30;99.90;;;;;;5012145;28;20375;-73
2022/06/21 01:06:17;;;;;;;9.00;3.40;;;13.50;99.90;;;;;;5030661;28;20490;-73
2022/06/21 01:08:48;;;;;;;12.68;4.05;;;13.30;99.90;;;;;;5012622;28;20096;-75
2022/06/21 01:11:24;;;;;;;11.32;3.58;;;13.30;99.90;;;;;;4998818;28;20052;-73
2022/06/21 01:13:53;;;;;;;12.25;3.72;;;13.30;99.90;;;;;;5028520;28;20095;-74
2022/06/21 01:16:20;;;;;;;11.98;3.42;;;13.40;99.90;;;;;;5012099;28;20049;-73
2022/06/21 01:18:47;;;;;;;10.85;4.13;;;13.60;99.90;;;;;;5011626;28;20038;-74
2022/06/21 01:21:16;;;;;;;12.02;4.03;;;13.30;99.90;;;;;;5030865;28;20462;-73
2022/06/21 01:23:53;;;;;;;12.68;3.83;;;13.30;99.90;;;;;;5028927;28;20045;-74
2022/06/21 01:26:31;;;;;;;14.07;4.03;;;13.30;99.90;;;;;;5012277;28;20037;-73
2022/06/21 01:28:58;;;;;;;11.35;3.92;;;13.30;99.90;;;;;;5030690;28;20057;-74
2022/06/21 01:31:24;;;;;;;9.50;3.72;;;13.30;99.90;;;;;;5028603;28;20374;-73
2022/06/21 01:33:50;;;;;;;12.38;3.90;;;13.20;99.90;;;;;;5022441;28;20506;-73
2022/06/21 01:36:24;;;;;;;10.70;3.80;;;13.20;99.90;;;;;;5031139;28;20038;-74
2022/06/21 01:38:57;;;;;;;13.35;4.05;;;13.30;99.90;;;;;;5029661;28;20041;-74
2022/06/21 01:41:33;;;;;;;8.77;3.72;;;13.20;99.90;;;;;;5029638;28;20041;-74
2022/06/21 01:44:06;;;;;;;8.30;4.15;;;13.40;99.90;;;;;;5030685;28;20045;-73
2022/06/21 01:46:32;;;;;;;11.85;3.88;;;13.20;99.90;;;;;;5028487;28;20075;-74
2022/06/21 01:49:07;;;;;;;14.10;4.10;;;13.20;99.90;;;;;;5018213;28;20054;-73
2022/06/21 01:51:36;;;;;;;;;;;13.90;99.90;;;;;;5012076;28;20498;-74
2022/06/21 01:54:03;;;;;;;11.60;3.75;;;13.10;99.90;;;;;;5029272;28;20063;-73
2022/06/21 01:56:35;;;;;;;10.57;4.40;;;13.00;99.90;;;;;;5029873;28;20044;-73
2022/06/21 01:59:37;;;;;;;8.65;3.92;;;13.00;99.90;;;;;;5010790;28;20072;-74
2022/06/21 02:02:12;;;;;;;11.02;4.13;;;13.00;99.90;;;;;;5014691;28;20045;-74
2022/06/21 02:05:02;;;;;;;9.88;4.18;;;12.90;99.90;;;;;;5029987;28;20148;-73
2022/06/21 02:07:34;;;;;;;9.45;4.05;;;13.30;99.90;;;;;;4996620;28;20502;-74
2022/06/21 02:10:12;;;;;;;10.52;4.22;;;12.90;99.90;;;;;;5012231;28;20048;-73
2022/06/21 02:12:53;;;;;;;9.75;4.32;;;12.90;99.90;;;;;;5012095;28;20068;-73
2022/06/21 02:15:29;;;;;;;8.80;3.88;;;12.90;99.90;;;;;;5029056;28;20041;-73
2022/06/21 02:17:57;;;;;;;8.88;3.72;;;12.90;99.90;;;;;;5029801;28;20103;-74
2022/06/21 02:20:38;;;;;;;9.85;3.95;;;13.00;99.90;;;;;;5029434;28;20566;-74
2022/06/21 02:23:05;;;;;;;11.07;4.35;;;13.00;99.90;;;;;;4994836;28;20057;-74
2022/06/21 02:25:32;;;;;;;8.60;4.15;;;12.90;99.90;;;;;;5011422;28;20045;-73
2022/06/21 02:28:07;;;;;;;11.43;3.90;;;13.80;99.90;;;;;;5029116;28;20156;-73
2022/06/21 02:30:36;;;;;;;12.40;4.20;;;12.90;99.90;;;;;;5029511;28;20053;-73
2022/06/21 02:33:05;;;;;;;10.63;3.80;;;13.80;99.90;;;;;;5028969;28;20068;-73
2022/06/21 02:35:40;;;;;;;10.55;3.88;;;12.90;99.90;;;;;;5032662;28;20064;-73
2022/06/21 02:38:13;;;;;;;11.35;3.95;;;12.90;99.90;;;;;;5019308;28;20096;-73
2022/06/21 02:40:44;;;;;;;7.65;3.80;;;12.80;99.90;;;;;;4992050;28;20042;-74
2022/06/21 02:43:37;;;;;;;11.52;4.20;;;12.80;99.90;;;;;;5020060;28;20049;-73
2022/06/21 02:46:13;;;;;;;13.55;4.43;;;12.90;99.90;;;;;;5028268;28;20072;-74
2022/06/21 02:49:15;;;;;;;12.13;4.47;;;12.80;99.90;;;;;;5028028;28;20060;-73
2022/06/21 02:52:01;;;;;;;11.85;4.35;;;12.80;99.90;;;;;;5028920;28;20050;-74
2022/06/21 02:54:36;;;;;;;10.45;3.97;;;12.80;99.90;;;;;;5028202;28;20073;-74
2022/06/21 02:57:13;;;;;;;11.52;4.40;;;12.80;99.90;;;;;;4994263;28;20045;-73
2022/06/21 02:59:41;;;;;;;11.32;4.22;;;12.70;99.90;;;;;;5028628;28;20375;-74
2022/06/21 03:02:12;;;;;;;9.80;4.55;;;12.80;99.90;;;;;;5027376;28;20037;-73
2022/06/21 03:04:52;;;;;;;16.15;4.78;;;13.40;99.90;;;;;;5010067;28;20049;-73
2022/06/21 03:07:24;;;;;;;9.80;4.40;;;12.70;99.90;;;;;;5027966;28;20049;-73
2022/06/21 03:09:52;;;;;;;10.82;3.83;;;13.40;99.90;;;;;;5030160;28;20108;-74
2022/06/21 03:12:21;;;;;;;9.25;4.03;;;12.70;99.90;;;;;;5028131;28;20041;-73
2022/06/21 03:14:49;;;;;;;8.85;3.83;;;12.70;99.90;;;;;;5009112;28;20053;-74
2022/06/21 03:17:18;;;;;;;11.38;4.40;;;12.70;99.90;;;;;;5010024;28;20041;-74
2022/06/21 03:19:49;;;;;;;9.77;4.10;;;12.70;99.90;;;;;;4994334;28;20053;-74
2022/06/21 03:22:19;;;;;;;10.30;4.15;;;12.70;99.90;;;;;;5028170;28;20486;-74
2022/06/21 03:24:48;;;;;;;12.27;4.15;;;12.70;99.90;;;;;;5029586;28;20074;-73
2022/06/21 03:27:20;;;;;;;9.10;4.50;;;13.00;99.90;;;;;;5028370;28;20105;-73
2022/06/21 03:29:46;;;;;;;9.75;3.83;;;12.70;99.90;;;;;;5012431;28;20072;-73
2022/06/21 03:32:13;;;;;;;9.02;4.10;;;12.70;99.90;;;;;;5027550;28;20045;-74
2022/06/21 03:34:39;;;;;;;9.80;4.45;;;12.70;99.90;;;;;;5010338;28;20073;-74
2022/06/21 03:37:05;;;;;;;10.32;4.20;;;13.10;99.90;;;;;;5029587;28;20088;-74
2022/06/21 03:42:19;;;;;;;11.85;4.65;;;13.50;99.90;;;;;;5028249;28;20494;-74
2022/06/21 03:45:09;;;;;;;10.30;4.30;;;12.70;99.90;;;;;;5028411;28;20128;-73
2022/06/21 03:47:39;;;;;;;9.95;4.20;;;12.70;99.90;;;;;;5009168;28;20064;-74
2022/06/21 03:50:20;;;;;;;10.63;4.95;;;12.90;99.90;;;;;;5014127;28;20038;-73
2022/06/21 03:53:18;;;;;;;8.70;4.50;;;12.70;99.90;;;;;;5027236;28;20046;-74
2022/06/21 03:55:47;;;;;;;14.57;4.72;;;12.70;99.90;;;;;;5028318;28;20053;-74
2022/06/21 03:58:16;;;;;;;9.80;5.10;;;12.80;99.90;;;;;;5027465;28;20048;-74
2022/06/21 04:01:01;;;;;;;8.55;4.47;;;12.80;99.90;;;;;;5027281;28;20596;-73
2022/06/21 04:03:40;;;;;;;10.00;4.68;;;12.80;99.90;;;;;;5009874;28;20052;-73
2022/06/21 04:06:55;;;;;;;10.68;4.65;;;12.80;99.90;;;;;;5028300;28;20072;-73
2022/06/21 04:10:00;;;;;;;12.02;4.55;;;12.90;99.90;;;;;;4993152;28;20156;-73
2022/06/21 04:12:48;;;;;;;10.45;4.70;;;12.90;99.90;;;;;;5028251;28;20045;-73
2022/06/21 04:15:22;;;;;;;12.40;5.20;;;12.90;99.90;;;;;;5027152;28;20099;-73
2022/06/21 04:17:59;;;;;;;9.98;5.50;;;12.90;99.90;;;;;;5027444;28;20536;-73
2022/06/21 04:20:57;;;;;;;8.90;4.63;;;13.00;99.90;;;;;;5020971;28;20064;-73
2022/06/21 04:23:37;;;;;;;9.30;4.78;;;13.00;99.90;;;;;;5007043;28;20192;-73
2022/06/21 04:26:26;;;;;;;7.43;4.85;;;13.00;99.90;;;;;;4990540;28;20157;-73
2022/06/21 04:29:10;;;;;;;10.63;5.07;;;13.70;99.90;;;;;;5024918;28;20394;-73
2022/06/21 04:31:39;;;;;;;12.13;4.68;;;13.10;99.90;;;;;;5028593;28;20108;-74
2022/06/21 04:34:30;;;;;;;11.25;5.38;;;13.10;99.90;;;;;;5031284;28;20056;-73
2022/06/21 04:37:08;;;;;;;7.75;4.75;;;13.20;99.90;;;;;;5022905;28;20533;-74
2022/06/21 04:39:51;;;;;;;8.18;4.97;;;13.10;99.90;;;;;;5030181;28;20047;-73
2022/06/21 04:42:43;;;;;;;9.25;4.57;;;13.20;99.90;;;;;;5030886;28;20402;-73
2022/06/21 04:45:21;;;;;;;12.02;4.75;;;13.10;99.90;;;;;;5013788;28;20046;-74
2022/06/21 04:47:55;;;;;;;8.55;4.80;;;13.20;99.90;;;;;;5030321;28;20391;-73
2022/06/21 04:50:27;;;;;;;13.52;5.20;;;13.30;99.90;;;;;;5008847;28;20046;-74
2022/06/21 04:53:10;;;;;;;9.57;5.40;;;13.20;99.90;;;;;;5011555;28;20045;-76
2022/06/21 04:55:50;;;;;;;7.10;4.70;;;13.20;99.90;;;;;;4993221;28;20152;-73
2022/06/21 04:58:16;;;;;;;9.88;4.68;;;13.20;99.90;;;;;;5025112;28;20072;-73
2022/06/21 05:00:42;;;;;;;12.27;5.18;;;13.20;99.90;;;;;;5012694;28;20162;-73
2022/06/21 05:03:24;;;;;;;8.07;4.57;;;13.20;99.90;;;;;;5029738;28;20045;-74
2022/06/21 05:05:50;;;;;;;9.80;4.72;;;13.20;99.90;;;;;;5031942;28;20452;-73
2022/06/21 05:08:22;;;;;;;10.57;5.22;;;13.20;99.90;;;;;;5032390;28;20125;-73
2022/06/21 05:10:54;;;;;;;9.60;4.72;;;13.20;99.90;;;;;;5017784;28;20076;-73
2022/06/21 05:13:40;;;;;;;10.93;4.80;;;13.30;99.90;;;;;;5030792;28;20398;-75
2022/06/21 05:16:20;;;;;;;9.98;4.85;;;13.30;99.90;;;;;;5029719;28;20094;-74
2022/06/21 05:18:51;;;;;;;11.10;4.95;;;13.30;99.90;;;;;;5029538;28;20052;-74
2022/06/21 05:21:33;;;;;;;13.27;5.63;;;13.40;99.90;;;;;;5030844;28;20466;-74
2022/06/21 05:24:00;;;;;;;9.40;4.70;;;13.40;99.90;;;;;;5011924;28;20136;-73
2022/06/21 05:26:38;;;;;;;11.13;5.40;;;13.80;99.90;;;;;;5029778;28;20049;-74
2022/06/21 05:29:18;;;;;;;8.13;5.10;;;13.50;99.90;;;;;;5030600;28;20052;-74
2022/06/21 05:31:49;;;;;;;10.50;5.38;;;13.50;99.90;;;;;;5029847;28;20033;-74
2022/06/21 05:34:23;;;;;;;9.80;6.00;;;13.50;99.90;;;;;;5030508;28;20042;-74
2022/06/21 05:37:12;;;;;;;11.70;5.15;;;13.50;99.90;;;;;;5010961;28;20038;-74
2022/06/21 05:39:42;;;;;;;12.60;5.65;;;13.50;99.90;;;;;;5028693;28;20053;-74
2022/06/21 05:42:12;;;;;;;13.68;5.82;;;13.50;99.90;;;;;;5028751;28;20038;-74
2022/06/21 05:44:49;;;;;;;10.98;5.50;;;13.70;99.90;;;;;;5029629;28;20085;-74
2022/06/21 05:47:27;;;;;;;11.93;5.70;;;14.10;99.90;;;;;;5011225;28;20115;-74
2022/06/21 05:49:55;;;;;;;12.98;6.00;;;13.60;99.90;;;;;;5028573;28;20123;-74
2022/06/21 05:52:28;;;;;;;11.48;5.28;;;13.70;99.90;;;;;;5028800;28;20068;-75
2022/06/21 05:55:04;;;;;;;10.65;4.68;;;13.70;99.90;;;;;;5029646;28;20045;-74
2022/06/21 05:57:52;;;;;;;11.18;5.30;;;13.70;99.90;;;;;;5029394;28;20053;-75
2022/06/21 06:00:36;;;;;;;13.52;5.20;;;13.70;99.90;;;;;;5024480;28;20034;-74
2022/06/21 06:03:14;;;;;;;8.07;4.55;;;13.80;99.90;;;;;;5028957;28;20045;-74
2022/06/21 06:05:41;;;;;;;11.95;5.38;;;13.80;99.90;;;;;;5028496;28;20533;-74
2022/06/21 06:08:12;;;;;;;12.70;5.20;;;13.90;99.90;;;;;;5010153;28;20057;-74
2022/06/21 06:10:42;;;;;;;12.90;5.07;;;14.70;99.90;;;;;;5029017;28;20048;-74
2022/06/21 06:13:14;;;;;;;9.48;5.30;;;14.60;99.90;;;;;;5028851;28;20085;-74
2022/06/21 06:15:46;;;;;;;14.18;4.70;;;14.30;99.90;;;;;;5010367;28;20053;-74
2022/06/21 06:18:23;;;;;;;10.23;4.78;;;14.20;99.90;;;;;;5028610;28;20064;-74
2022/06/21 06:20:58;;;;;;;11.60;5.15;;;14.20;99.90;;;;;;5018546;28;20530;-74
2022/06/21 06:23:35;;;;;;;10.90;4.97;;;15.00;99.90;;;;;;5010742;28;20104;-74
2022/06/21 06:26:20;;;;;;;9.52;5.38;;;14.30;99.90;;;;;;5030088;28;20284;-74
2022/06/21 06:29:06;;;;;;;7.73;5.10;;;14.20;99.90;;;;;;5028170;28;20049;-74
2022/06/21 06:31:41;;;;;;;12.05;5.30;;;14.60;99.90;;;;;;5027685;28;20303;-74
2022/06/21 06:34:11;;;;;;;12.32;4.22;;;15.10;99.90;;;;;;5028391;28;20064;-74
2022/06/21 06:36:41;;;;;;;9.07;3.75;;;15.00;99.90;;;;;;5011750;28;20055;-74
2022/06/21 06:39:23;;;;;;;11.23;3.90;;;15.10;99.90;;;;;;5028594;28;20458;-74
2022/06/21 06:41:55;;;;;;;5.25;3.00;;;15.20;99.90;;;;;;5027981;28;20065;-74
2022/06/21 06:44:24;;;;;;;10.20;3.10;;;15.30;99.90;;;;;;5027271;28;20048;-74
2022/06/21 06:46:51;;;;;;;6.93;3.10;;;15.30;99.90;;;;;;5027616;28;20483;-74
2022/06/21 06:49:25;;;;;;;8.65;3.30;;;15.40;99.90;;;;;;5027057;28;20045;-74
2022/06/21 06:52:01;;;;;;;7.28;3.28;;;15.50;99.90;;;;;;5028200;28;20037;-74
2022/06/21 06:54:34;;;;;;;12.77;3.60;;;15.50;99.90;;;;;;5009599;28;20049;-75
2022/06/21 06:57:17;;;;;;;10.20;3.08;;;15.70;99.90;;;;;;5009845;28;20060;-74
2022/06/21 06:59:44;;;;;;;6.25;3.00;;;15.70;99.90;;;;;;5019197;28;20104;-74
2022/06/21 07:02:39;;;;;;;8.23;3.53;;;15.80;99.90;;;;;;5019342;28;20053;-74
2022/06/21 07:05:27;;;;;;;9.10;3.25;;;15.80;99.90;;;;;;4993033;28;20156;-75
2022/06/21 07:07:58;;;;;;;10.48;3.38;;;15.80;99.90;;;;;;4992100;28;20104;-74
2022/06/21 07:10:26;;;;;;;8.63;2.80;;;16.70;99.90;;;;;;5007644;28;20490;-74
2022/06/21 07:12:54;;;;;;;7.97;3.58;;;15.90;99.90;;;;;;5008562;28;20223;-74
2022/06/21 07:15:45;;;;;;;6.82;3.03;;;16.00;99.90;;;;;;5023995;28;20136;-75
2022/06/21 07:18:40;;;;;;;8.77;3.40;;;15.80;99.90;;;;;;5018746;28;20054;-75
2022/06/21 07:21:06;;;;;;;9.32;3.47;;;15.80;99.90;;;;;;5009934;28;20042;-75
2022/06/21 07:23:32;;;;;;;7.85;3.35;;;15.80;99.90;;;;;;5008239;28;20536;-75
2022/06/21 07:26:10;;;;;;;8.43;3.33;;;16.30;99.90;;;;;;5010984;28;20064;-74
2022/06/21 07:28:41;;;;;;;10.50;3.30;;;16.00;99.90;;;;;;5027420;28;20084;-74
2022/06/21 07:31:20;;;;;;;8.90;3.67;;;16.20;99.90;;;;;;5027560;28;20141;-73
2022/06/21 07:33:52;;;;;;;9.15;3.38;;;16.20;99.90;;;;;;5008817;28;20486;-73
2022/06/21 07:36:33;;;;;;;10.55;3.72;;;16.30;99.90;;;;;;5027098;28;20124;-73
2022/06/21 07:39:08;;;;;;;8.65;3.35;;;16.40;99.90;;;;;;5027299;28;20048;-75
2022/06/21 07:41:42;;;;;;;;;;;16.10;99.90;;;;;;5028242;28;20370;-75
2022/06/21 07:44:19;;;;;;;8.15;3.22;;;16.10;99.90;;;;;;5026594;28;20031;-75
2022/06/21 07:46:52;;;;;;;7.63;3.42;;;16.40;99.90;;;;;;5023158;28;20344;-75
2022/06/21 07:49:36;;;;;;;10.05;3.38;;;16.10;99.90;;;;;;5014189;28;20065;-70
2022/06/21 07:52:14;;;;;;;7.05;3.10;;;16.10;99.90;;;;;;5024435;28;20057;-70
2022/06/21 07:54:54;;;;;;;9.00;3.70;;;16.40;99.90;;;;;;5008846;28;20456;-71
2022/06/21 07:57:28;;;;;;;9.77;4.03;;;16.50;99.90;;;;;;5022628;28;20076;-71
2022/06/21 08:00:01;;;;;;;11.88;3.70;;;16.60;99.90;;;;;;5005902;28;20083;-70
2022/06/21 08:08:33;;;;;;;10.07;3.88;;;16.60;99.90;;;;;;5010684;28;20153;-71
2022/06/21 08:11:07;;;;;;;11.20;3.70;;;16.70;99.90;;;;;;5011656;28;20467;-71
2022/06/21 08:13:33;;;;;;;10.00;3.88;;;16.90;99.90;;;;;;4993478;28;20101;-70
2022/06/21 08:16:11;;;;;;;8.60;3.22;;;17.10;99.90;;;;;;5011701;28;20561;-71
2022/06/21 08:18:47;;;;;;;9.10;3.22;;;17.20;99.90;;;;;;4998771;28;20049;-70
2022/06/21 08:21:24;;;;;;;10.05;2.88;;;17.20;99.90;;;;;;5022112;28;20481;-67
2022/06/21 08:24:03;;;;;;;6.38;3.47;;;17.30;99.90;;;;;;5026963;28;20041;-68
2022/06/21 08:26:37;;;;;;;9.15;2.90;;;17.40;99.90;;;;;;5026470;28;20049;-69
2022/06/21 08:29:29;;;;;;;9.32;3.10;;;17.20;99.90;;;;;;5028025;28;20051;-69
2022/06/21 08:32:06;;;;;;;7.00;2.80;;;17.10;99.90;;;;;;5027126;28;20045;-69
2022/06/21 08:35:37;;;;;;;7.35;2.83;;;17.10;99.90;;;;;;5009281;28;20057;-69
2022/06/21 08:38:20;;;;;;;10.48;3.65;;;17.10;99.90;;;;;;4946295;29;20118;-68
2022/06/21 08:40:48;;;;;;;12.65;3.97;;;17.20;99.90;;;;;;4946017;29;20451;-68
2022/06/21 08:43:40;;;;;;;9.20;3.10;;;17.40;99.90;;;;;;4987493;28;20050;-68
2022/06/21 08:47:00;;;;;;;7.63;3.25;;;17.50;99.90;;;;;;5008020;28;20073;-78
2022/06/21 08:49:48;;;;;;;8.90;3.47;;;17.60;99.90;;;;;;4929943;29;20409;-70
2022/06/21 08:52:47;;;;;;;9.10;3.50;;;17.50;99.90;;;;;;5023044;28;20064;-70
2022/06/21 08:55:20;;;;;;;9.98;3.45;;;17.50;99.90;;;;;;5027824;28;20347;-70
2022/06/21 08:58:21;;;;;;;7.20;3.08;;;17.50;99.90;;;;;;5032120;28;20045;-70
2022/06/21 09:00:59;;;;;;;9.45;3.40;;;17.60;99.90;;;;;;4997734;28;20065;-70
2022/06/21 09:03:48;;;;;;;7.60;2.85;;;17.60;99.90;;;;;;5029573;28;20079;-70
2022/06/21 09:06:36;;;;;;;6.85;2.88;;;17.60;99.90;;;;;;5011965;28;20116;-71
2022/06/21 09:09:08;;;;;;;7.78;2.90;;;17.80;99.90;;;;;;5009580;28;20128;-72
2022/06/21 09:12:01;;;;;;;8.73;2.85;;;18.00;99.90;;;;;;5029604;28;20037;-72
2022/06/21 09:14:47;;;;;;;5.65;2.42;;;18.20;99.90;;;;;;5030216;28;20103;-72
2022/06/21 09:17:28;;;;;;;8.20;3.00;;;18.30;99.90;;;;;;5029026;28;20041;-69
2022/06/21 09:20:18;;;;;;;7.13;2.83;;;18.40;99.90;;;;;;5030016;28;20045;-69
2022/06/21 09:23:05;;;;;;;5.63;3.00;;;18.60;99.90;;;;;;5028509;28;20053;-70
2022/06/21 09:25:40;;;;;;;6.22;2.95;;;18.80;99.90;;;;;;5012020;28;20372;-70
2022/06/21 09:28:22;;;;;;;7.40;3.03;;;19.00;99.90;;;;;;5011890;28;20041;-70
2022/06/21 09:31:19;;;;;;;9.50;4.05;;;19.10;99.90;;;;;;5011588;28;20152;-70
2022/06/21 09:33:59;;;;;;;9.50;3.08;;;19.20;99.90;;;;;;5029888;28;20099;-70
2022/06/21 09:36:40;;;;;;;6.55;2.60;;;19.20;99.90;;;;;;5031722;28;20057;-70
2022/06/21 09:39:13;;;;;;;7.30;2.60;;;19.30;99.90;;;;;;5028722;28;20087;-71
2022/06/21 09:41:39;;;;;;;5.13;2.00;;;19.50;99.90;;;;;;5028698;28;20049;-71
2022/06/21 09:44:39;;;;;;;5.75;2.40;;;19.60;99.90;;;;;;5029656;28;20056;-70
2022/06/21 09:47:45;;;;;;;5.38;2.50;;;19.80;99.90;;;;;;5028337;28;20049;-72
2022/06/21 09:50:24;;;;;;;8.10;2.53;;;19.90;99.90;;;;;;5030675;28;20037;-71
2022/06/21 09:53:12;;;;;;;6.72;2.60;;;20.20;99.90;;;;;;5033001;28;20205;-71
2022/06/21 09:56:22;;;;;;;7.38;2.40;;;20.30;99.90;;;;;;5016063;28;20052;-71
2022/06/21 09:59:19;;;;;;;5.22;2.45;;;20.20;99.90;;;;;;4982187;28;20122;-71
2022/06/21 10:01:58;;;;;;;7.50;2.50;;;20.30;99.90;;;;;;5029300;28;20367;-71
2022/06/21 10:04:42;;;;;;;6.90;2.67;;;20.50;99.90;;;;;;5029234;28;20056;-72
2022/06/21 10:07:44;;;;;;;5.43;2.40;;;21.00;99.90;;;;;;5032710;28;20444;-71
2022/06/21 10:10:45;;;;;;;7.30;2.40;;;21.70;99.90;;;;;;5030985;28;20405;-71
2022/06/21 10:13:48;;;;;;;3.85;2.30;;;23.30;99.90;;;;;;5011722;28;20118;-70
2022/06/21 10:16:41;;;;;;;5.38;2.58;;;25.80;97.60;;;;;;5031312;28;20041;-70
2022/06/21 10:19:40;;;;;;;5.15;2.35;;;26.40;95.80;;;;;;5028551;28;20111;-71
2022/06/21 10:22:24;;;;;;;7.63;2.65;;;25.50;95.80;;;;;;5009066;28;20053;-70
2022/06/21 10:24:58;;;;;;;4.40;2.13;;;26.40;96.80;;;;;;5008139;28;20045;-70
2022/06/21 10:27:38;;;;;;;9.05;2.85;;;29.50;95.00;;;;;;5009435;28;20091;-72
2022/06/21 10:30:35;;;;;;;3.58;2.05;;;32.00;91.90;;;;;;5008586;28;20049;-72
2022/06/21 10:33:12;;;;;;;5.25;1.90;;;33.70;86.70;;;;;;4975239;28;20351;-70
2022/06/21 10:36:26;;;;;;;6.57;2.00;;;34.00;87.70;;;;;;5009264;28;20125;-72
2022/06/21 10:38:51;;;;;;;4.55;1.85;;;32.20;85.50;;;;;;4994380;28;20057;-72
2022/06/21 10:41:25;;;;;;;5.00;1.90;;;30.60;87.30;;;;;;5019728;28;20060;-72
2022/06/21 10:44:05;;;;;;;4.65;1.65;;;29.70;87.00;;;;;;5011515;28;20132;-72
2022/06/21 10:46:42;;;;;;;3.72;1.30;;;29.60;87.60;;;;;;5028525;28;20557;-70
2022/06/21 10:49:31;;;;;;;3.25;1.60;;;30.60;87.90;;;;;;5010733;28;20064;-71
2022/06/21 10:52:11;;;;;;;5.45;1.90;;;32.40;82.50;;;;;;5012711;28;20053;-71
2022/06/21 10:55:07;;;;;;;5.65;1.90;;;32.80;83.00;;;;;;5027329;28;20041;-70
2022/06/21 10:57:53;;;;;;;4.40;1.70;;;31.40;81.40;;;;;;5028750;28;20049;-71
2022/06/21 11:03:39;;;;;;;3.35;1.52;;;31.80;80.30;;;;;;5029815;28;20125;-70
2022/06/21 11:06:33;;;;;;;4.97;1.67;;;30.60;81.50;;;;;;5030473;28;20121;-71
2022/06/21 11:09:27;;;;;;;4.30;1.65;;;30.30;80.20;;;;;;5011597;28;20155;-71
2022/06/21 11:11:59;;;;;;;2.78;1.42;;;29.80;81.40;;;;;;5028794;28;20045;-71
2022/06/21 11:14:46;;;;;;;5.60;1.30;;;29.60;86.10;;;;;;5027187;28;20049;-71
2022/06/21 11:17:32;;;;;;;4.68;1.30;;;29.20;82.60;;;;;;5009410;28;20474;-71
2022/06/21 11:20:20;;;;;;;5.15;1.73;;;28.70;83.80;;;;;;5017748;28;20045;-71
2022/06/21 11:23:21;;;;;;;4.00;1.50;;;28.50;83.40;;;;;;5000983;28;20053;-71
2022/06/21 11:25:58;;;;;;;5.47;1.60;;;28.50;85.50;;;;;;4990366;28;20042;-71
2022/06/21 11:28:36;;;;;;;6.30;1.60;;;28.70;84.60;;;;;;5007040;28;20543;-71
2022/06/21 11:31:07;;;;;;;3.97;1.60;;;29.80;84.80;;;;;;5008235;28;20125;-72
2022/06/21 11:33:58;;;;;;;4.18;1.65;;;30.80;83.80;;;;;;4989857;28;20550;-71
2022/06/21 11:36:36;;;;;;;4.70;1.70;;;32.10;82.50;;;;;;5005496;28;20046;-70
2022/06/21 11:39:29;;;;;;;4.93;1.58;;;33.60;80.50;;;;;;5007750;28;20065;-71
2022/06/21 11:42:32;;;;;;;3.33;1.50;;;35.20;80.30;;;;;;4989539;28;20052;-70
2022/06/21 11:45:31;;;;;;;4.65;1.73;;;36.00;75.80;;;;;;4967778;28;20049;-71
2022/06/21 11:48:02;;;;;;;4.22;1.75;;;34.80;75.50;;;;;;4989890;28;20050;-70
2022/06/21 11:51:01;;;;;;;5.22;1.90;;;33.40;76.70;;;;;;5008840;28;20216;-71
2022/06/21 11:53:44;;;;;;;6.90;1.75;;;32.00;78.40;;;;;;4988988;28;20053;-71
2022/06/21 11:56:32;;;;;;;4.50;1.80;;;31.80;79.20;;;;;;5014615;28;20037;-71
2022/06/21 11:59:32;;;;;;;3.90;1.50;;;33.70;78.30;;;;;;5026643;28;20046;-71
2022/06/21 12:02:10;;;;;;;4.38;1.45;;;35.40;77.50;;;;;;5010218;28;20065;-71
2022/06/21 12:04:46;;;;;;;5.22;1.70;;;35.90;75.60;;;;;;5010258;28;20050;-82
2022/06/21 12:07:35;;;;;;;5.18;1.50;;;36.10;73.50;;;;;;4993127;28;20053;-83
2022/06/21 12:10:14;;;;;;;3.58;1.40;;;35.70;72.70;;;;;;5028473;28;20080;-81
2022/06/21 12:12:59;;;;;;;3.72;1.50;;;35.50;72.90;;;;;;5012337;28;20041;-82
2022/06/21 12:16:24;;;;;;;4.15;1.50;;;34.60;72.90;;;;;;4991794;28;20077;-69
2022/06/21 12:19:05;;;;;;;4.03;1.23;;;33.40;72.70;;;;;;4922165;29;20055;-70
2022/06/21 12:21:35;;;;;;;6.03;1.70;;;32.30;75.40;;;;;;4943382;28;20058;-70
2022/06/21 12:24:05;;;;;;;3.28;1.52;;;31.30;75.90;;;;;;4984078;28;20468;-69
2022/06/21 12:26:34;;;;;;;5.50;1.55;;;30.20;76.40;;;;;;5023048;28;20355;-70
2022/06/21 12:29:03;;;;;;;4.18;1.60;;;29.50;77.00;;;;;;5024300;28;20055;-70
2022/06/21 12:31:39;;;;;;;4.07;1.52;;;28.90;77.70;;;;;;5022381;28;20041;-70
2022/06/21 12:34:12;;;;;;;4.25;1.40;;;28.40;77.10;;;;;;5023627;28;20053;-70
2022/06/21 12:36:56;;;;;;;3.00;1.33;;;28.00;77.40;;;;;;5023376;28;20042;-70
2022/06/21 12:39:55;;;;;;;3.92;1.50;;;27.50;78.40;;;;;;5023928;28;20370;-70
2022/06/21 12:42:40;;;;;;;4.00;1.50;;;27.30;78.50;;;;;;5025063;28;20069;-71
2022/06/21 12:45:18;;;;;;;4.88;1.63;;;27.10;79.60;;;;;;5005264;28;20072;-70
2022/06/21 12:48:04;;;;;;;2.53;1.35;;;26.90;80.40;;;;;;5020971;28;20091;-70
2022/06/21 12:51:01;;;;;;;5.25;1.70;;;26.70;80.40;;;;;;4998225;28;20054;-70
2022/06/21 12:53:26;;;;;;;4.47;1.67;;;26.50;79.80;;;;;;5027665;28;20041;-70
2022/06/21 12:56:05;;;;;;;4.40;1.90;;;26.20;80.30;;;;;;4995903;28;20056;-71
2022/06/21 12:59:02;;;;;;;4.95;1.60;;;26.10;80.50;;;;;;5026952;28;20608;-69
2022/06/21 13:01:42;;;;;;;5.30;1.80;;;25.70;81.30;;;;;;5026713;28;20061;-69
2022/06/21 13:04:32;;;;;;;7.55;1.95;;;25.40;82.10;;;;;;5010711;28;20095;-70
2022/06/21 13:07:15;;;;;;;4.68;1.70;;;25.10;82.60;;;;;;5023141;28;21382;-70
2022/06/21 13:10:15;;;;;;;6.28;2.03;;;24.90;83.00;;;;;;5026343;28;20481;-76
2022/06/21 13:12:43;;;;;;;4.43;1.90;;;24.70;83.70;;;;;;5029348;28;20045;-76
2022/06/21 13:15:21;;;;;;;5.50;1.60;;;24.60;83.40;;;;;;5026653;28;20107;-76
2022/06/21 13:17:52;;;;;;;5.63;1.80;;;24.70;82.90;;;;;;5027915;28;20077;-76
2022/06/21 13:20:34;;;;;;;4.75;1.60;;;24.70;83.30;;;;;;5029054;28;20123;-76
2022/06/21 13:23:15;;;;;;;5.03;2.00;;;24.80;83.20;;;;;;5029946;28;20049;-77
2022/06/21 13:25:47;;;;;;;4.47;1.80;;;24.90;83.90;;;;;;5029955;28;20523;-76
2022/06/21 13:28:39;;;;;;;5.25;1.80;;;25.00;83.70;;;;;;5029787;28;20080;-76
2022/06/21 13:31:07;;;;;;;5.93;1.70;;;25.00;83.40;;;;;;5049819;28;20084;-77
2022/06/21 13:33:37;;;;;;;3.90;1.50;;;25.00;83.80;;;;;;5048470;28;20049;-76
2022/06/21 13:36:13;;;;;;;5.10;1.90;;;25.00;84.40;;;;;;5048756;28;20053;-76
2022/06/21 13:38:53;;;;;;;7.72;1.80;;;24.90;84.30;;;;;;5048010;28;20045;-76
2022/06/21 13:44:48;;;;;;;7.18;2.08;;;24.90;85.10;;;;;;4948416;29;20047;-76
2022/06/21 13:47:31;;;;;;;5.47;2.03;;;24.80;85.10;;;;;;4948085;29;20171;-77
2022/06/21 13:50:26;;;;;;;3.55;2.05;;;24.70;85.80;;;;;;4989549;28;20052;-77
2022/06/21 13:53:04;;;;;;;3.88;1.80;;;24.60;85.00;;;;;;5027078;28;20072;-75
2022/06/21 13:55:35;;;;;;;4.53;1.77;;;24.60;85.40;;;;;;5028426;28;20426;-76
2022/06/21 13:58:25;;;;;;;4.78;1.80;;;24.50;85.90;;;;;;5028976;28;20447;-74